sensor_id;sensor_type;location;lat;lon;timestamp;temperature;humidity
41756;DHT22;27435;48.480;9.258;2023-05-29T00:03:06;12.30;90.60
41756;DHT22;27435;48.480;9.258;2023-05-29T00:05:34;12.20;91.60
41756;DHT22;27435;48.480;9.258;2023-05-29T00:08:00;12.40;91.20
41756;DHT22;27435;48.480;9.258;2023-05-29T00:10:32;12.30;90.80
41756;DHT22;27435;48.480;9.258;2023-05-29T00:13:16;12.20;90.70
41756;DHT22;27435;48.480;9.258;2023-05-29T00:15:42;12.10;90.80
41756;DHT22;27435;48.480;9.258;2023-05-29T00:18:10;11.90;92.00
41756;DHT22;27435;48.480;9.258;2023-05-29T00:20:36;11.80;92.20
41756;DHT22;27435;48.480;9.258;2023-05-29T00:23:07;11.70;93.60
41756;DHT22;27435;48.480;9.258;2023-05-29T00:25:35;11.60;94.10
41756;DHT22;27435;48.480;9.258;2023-05-29T00:28:11;11.70;94.90
41756;DHT22;27435;48.480;9.258;2023-05-29T00:30:43;11.70;94.90
41756;DHT22;27435;48.480;9.258;2023-05-29T00:33:26;11.70;94.60
41756;DHT22;27435;48.480;9.258;2023-05-29T00:35:54;11.70;94.00
41756;DHT22;27435;48.480;9.258;2023-05-29T00:38:22;11.60;94.00
41756;DHT22;27435;48.480;9.258;2023-05-29T00:40:48;11.60;93.70
41756;DHT22;27435;48.480;9.258;2023-05-29T00:43:22;11.70;93.50
41756;DHT22;27435;48.480;9.258;2023-05-29T00:46:04;11.70;93.10
41756;DHT22;27435;48.480;9.258;2023-05-29T00:48:33;11.70;93.50
41756;DHT22;27435;48.480;9.258;2023-05-29T00:51:00;11.70;93.90
41756;DHT22;27435;48.480;9.258;2023-05-29T00:53:29;11.70;93.80
41756;DHT22;27435;48.480;9.258;2023-05-29T00:55:54;11.60;94.20
41756;DHT22;27435;48.480;9.258;2023-05-29T00:58:20;11.40;94.60
41756;DHT22;27435;48.480;9.258;2023-05-29T01:00:49;11.30;94.90
41756;DHT22;27435;48.480;9.258;2023-05-29T01:03:18;11.40;94.50
41756;DHT22;27435;48.480;9.258;2023-05-29T01:05:44;11.30;94.30
41756;DHT22;27435;48.480;9.258;2023-05-29T01:08:13;11.20;95.20
41756;DHT22;27435;48.480;9.258;2023-05-29T01:10:45;11.20;94.90
41756;DHT22;27435;48.480;9.258;2023-05-29T01:13:12;11.10;95.50
41756;DHT22;27435;48.480;9.258;2023-05-29T01:19:10;11.20;97.50
41756;DHT22;27435;48.480;9.258;2023-05-29T01:22:12;11.20;96.90
41756;DHT22;27435;48.480;9.258;2023-05-29T01:28:26;11.10;97.50
41756;DHT22;27435;48.480;9.258;2023-05-29T01:30:57;11.10;97.00
41756;DHT22;27435;48.480;9.258;2023-05-29T01:33:25;11.10;96.50
41756;DHT22;27435;48.480;9.258;2023-05-29T01:35:56;11.30;96.20
41756;DHT22;27435;48.480;9.258;2023-05-29T01:41:21;11.30;96.10
41756;DHT22;27435;48.480;9.258;2023-05-29T01:43:50;11.20;96.20
41756;DHT22;27435;48.480;9.258;2023-05-29T01:46:19;11.00;97.30
41756;DHT22;27435;48.480;9.258;2023-05-29T01:48:48;10.90;98.00
41756;DHT22;27435;48.480;9.258;2023-05-29T01:51:24;10.80;98.50
41756;DHT22;27435;48.480;9.258;2023-05-29T01:53:52;10.70;98.80
41756;DHT22;27435;48.480;9.258;2023-05-29T01:56:19;10.60;98.70
41756;DHT22;27435;48.480;9.258;2023-05-29T01:58:45;10.50;98.60
41756;DHT22;27435;48.480;9.258;2023-05-29T02:01:12;10.50;99.00
41756;DHT22;27435;48.480;9.258;2023-05-29T02:03:37;10.50;99.00
41756;DHT22;27435;48.480;9.258;2023-05-29T02:06:03;10.40;99.00
41756;DHT22;27435;48.480;9.258;2023-05-29T02:08:29;10.50;98.70
41756;DHT22;27435;48.480;9.258;2023-05-29T02:10:55;10.50;98.90
41756;DHT22;27435;48.480;9.258;2023-05-29T02:13:21;10.40;99.00
41756;DHT22;27435;48.480;9.258;2023-05-29T02:15:49;10.50;99.00
41756;DHT22;27435;48.480;9.258;2023-05-29T02:18:15;10.30;99.00
41756;DHT22;27435;48.480;9.258;2023-05-29T02:20:54;10.20;99.00
41756;DHT22;27435;48.480;9.258;2023-05-29T02:23:19;10.30;99.00
41756;DHT22;27435;48.480;9.258;2023-05-29T02:25:53;10.30;99.00
41756;DHT22;27435;48.480;9.258;2023-05-29T02:28:18;10.20;99.00
41756;DHT22;27435;48.480;9.258;2023-05-29T02:30:54;10.10;99.00
41756;DHT22;27435;48.480;9.258;2023-05-29T02:33:22;10.20;99.00
41756;DHT22;27435;48.480;9.258;2023-05-29T02:35:48;10.20;99.00
41756;DHT22;27435;48.480;9.258;2023-05-29T02:38:16;10.20;99.00
41756;DHT22;27435;48.480;9.258;2023-05-29T02:40:47;10.20;99.00
41756;DHT22;27435;48.480;9.258;2023-05-29T02:43:33;10.30;99.00
41756;DHT22;27435;48.480;9.258;2023-05-29T02:46:01;10.20;99.00
41756;DHT22;27435;48.480;9.258;2023-05-29T02:48:26;10.00;99.00
41756;DHT22;27435;48.480;9.258;2023-05-29T02:51:00;10.00;99.00
41756;DHT22;27435;48.480;9.258;2023-05-29T02:53:25;10.10;99.00
41756;DHT22;27435;48.480;9.258;2023-05-29T02:56:02;9.90;99.00
41756;DHT22;27435;48.480;9.258;2023-05-29T02:58:52;9.90;99.00
41756;DHT22;27435;48.480;9.258;2023-05-29T03:01:33;9.90;99.00
41756;DHT22;27435;48.480;9.258;2023-05-29T03:04:06;10.00;99.00
41756;DHT22;27435;48.480;9.258;2023-05-29T03:06:35;10.10;99.00
41756;DHT22;27435;48.480;9.258;2023-05-29T03:09:10;10.00;99.00
41756;DHT22;27435;48.480;9.258;2023-05-29T03:11:44;9.90;99.00
41756;DHT22;27435;48.480;9.258;2023-05-29T03:14:10;9.80;99.00
41756;DHT22;27435;48.480;9.258;2023-05-29T03:17:22;9.80;99.00
41756;DHT22;27435;48.480;9.258;2023-05-29T03:19:50;9.80;99.00
41756;DHT22;27435;48.480;9.258;2023-05-29T03:22:19;9.80;99.00
41756;DHT22;27435;48.480;9.258;2023-05-29T03:24:47;10.10;99.00
41756;DHT22;27435;48.480;9.258;2023-05-29T03:27:13;10.00;99.00
41756;DHT22;27435;48.480;9.258;2023-05-29T03:29:39;9.90;99.00
41756;DHT22;27435;48.480;9.258;2023-05-29T03:32:05;9.90;99.00
41756;DHT22;27435;48.480;9.258;2023-05-29T03:34:30;9.90;99.00
41756;DHT22;27435;48.480;9.258;2023-05-29T03:36:57;9.90;99.00
41756;DHT22;27435;48.480;9.258;2023-05-29T03:39:46;10.00;99.00
41756;DHT22;27435;48.480;9.258;2023-05-29T03:42:14;9.90;99.00
41756;DHT22;27435;48.480;9.258;2023-05-29T03:44:45;9.80;99.00
41756;DHT22;27435;48.480;9.258;2023-05-29T03:47:14;10.00;99.00
41756;DHT22;27435;48.480;9.258;2023-05-29T03:49:51;10.00;99.00
41756;DHT22;27435;48.480;9.258;2023-05-29T03:52:17;9.90;99.00
41756;DHT22;27435;48.480;9.258;2023-05-29T03:54:43;9.80;99.00
41756;DHT22;27435;48.480;9.258;2023-05-29T03:57:10;9.80;99.00
41756;DHT22;27435;48.480;9.258;2023-05-29T03:59:36;10.20;99.00
41756;DHT22;27435;48.480;9.258;2023-05-29T04:02:02;10.20;99.00
41756;DHT22;27435;48.480;9.258;2023-05-29T04:04:28;10.20;99.00
41756;DHT22;27435;48.480;9.258;2023-05-29T04:06:53;10.10;99.00
41756;DHT22;27435;48.480;9.258;2023-05-29T04:09:21;10.10;99.00
41756;DHT22;27435;48.480;9.258;2023-05-29T04:11:50;10.40;99.00
41756;DHT22;27435;48.480;9.258;2023-05-29T04:14:17;10.70;99.00
41756;DHT22;27435;48.480;9.258;2023-05-29T04:16:43;10.80;99.00
41756;DHT22;27435;48.480;9.258;2023-05-29T04:19:11;10.60;99.00
41756;DHT22;27435;48.480;9.258;2023-05-29T04:21:37;10.60;99.00
41756;DHT22;27435;48.480;9.258;2023-05-29T04:24:08;10.80;99.00
41756;DHT22;27435;48.480;9.258;2023-05-29T04:26:37;10.80;99.00
41756;DHT22;27435;48.480;9.258;2023-05-29T04:29:09;11.10;99.00
41756;DHT22;27435;48.480;9.258;2023-05-29T04:31:34;11.00;98.60
41756;DHT22;27435;48.480;9.258;2023-05-29T04:34:02;11.00;98.70
41756;DHT22;27435;48.480;9.258;2023-05-29T04:36:33;11.10;98.10
41756;DHT22;27435;48.480;9.258;2023-05-29T04:39:01;11.00;98.70
41756;DHT22;27435;48.480;9.258;2023-05-29T04:41:28;11.00;98.60
41756;DHT22;27435;48.480;9.258;2023-05-29T04:43:59;10.90;99.00
41756;DHT22;27435;48.480;9.258;2023-05-29T04:46:25;10.90;99.00
41756;DHT22;27435;48.480;9.258;2023-05-29T04:48:59;11.20;98.90
41756;DHT22;27435;48.480;9.258;2023-05-29T04:51:28;11.20;98.90
41756;DHT22;27435;48.480;9.258;2023-05-29T04:53:57;11.30;98.40
41756;DHT22;27435;48.480;9.258;2023-05-29T04:56:23;11.40;98.20
41756;DHT22;27435;48.480;9.258;2023-05-29T04:58:49;11.50;98.00
41756;DHT22;27435;48.480;9.258;2023-05-29T05:01:14;11.50;97.70
41756;DHT22;27435;48.480;9.258;2023-05-29T05:03:41;11.50;98.70
41756;DHT22;27435;48.480;9.258;2023-05-29T05:06:06;11.50;98.50
41756;DHT22;27435;48.480;9.258;2023-05-29T05:08:33;11.60;97.50
41756;DHT22;27435;48.480;9.258;2023-05-29T05:11:00;11.70;97.20
41756;DHT22;27435;48.480;9.258;2023-05-29T05:13:28;11.70;97.50
41756;DHT22;27435;48.480;9.258;2023-05-29T05:15:54;11.80;97.10
41756;DHT22;27435;48.480;9.258;2023-05-29T05:18:24;11.90;96.20
41756;DHT22;27435;48.480;9.258;2023-05-29T05:20:50;12.00;96.10
41756;DHT22;27435;48.480;9.258;2023-05-29T05:23:16;12.20;95.70
41756;DHT22;27435;48.480;9.258;2023-05-29T05:25:52;12.20;95.70
41756;DHT22;27435;48.480;9.258;2023-05-29T05:28:17;12.30;95.60
41756;DHT22;27435;48.480;9.258;2023-05-29T05:30:43;12.50;94.60
41756;DHT22;27435;48.480;9.258;2023-05-29T05:33:08;12.60;94.80
41756;DHT22;27435;48.480;9.258;2023-05-29T05:35:34;13.00;94.80
41756;DHT22;27435;48.480;9.258;2023-05-29T05:38:06;13.70;92.00
41756;DHT22;27435;48.480;9.258;2023-05-29T05:40:34;14.60;89.60
41756;DHT22;27435;48.480;9.258;2023-05-29T05:43:03;15.60;85.70
41756;DHT22;27435;48.480;9.258;2023-05-29T05:45:32;16.20;82.80
41756;DHT22;27435;48.480;9.258;2023-05-29T05:48:05;16.40;81.60
41756;DHT22;27435;48.480;9.258;2023-05-29T05:50:34;16.60;81.50
41756;DHT22;27435;48.480;9.258;2023-05-29T05:53:03;17.40;78.20
41756;DHT22;27435;48.480;9.258;2023-05-29T05:55:29;17.60;76.50
41756;DHT22;27435;48.480;9.258;2023-05-29T05:58:02;18.60;73.90
41756;DHT22;27435;48.480;9.258;2023-05-29T06:00:31;19.20;71.90
41756;DHT22;27435;48.480;9.258;2023-05-29T06:02:59;19.60;70.90
41756;DHT22;27435;48.480;9.258;2023-05-29T06:05:33;19.90;70.30
41756;DHT22;27435;48.480;9.258;2023-05-29T06:08:02;20.40;67.40
41756;DHT22;27435;48.480;9.258;2023-05-29T06:10:44;20.10;68.00
41756;DHT22;27435;48.480;9.258;2023-05-29T06:13:13;20.60;66.60
41756;DHT22;27435;48.480;9.258;2023-05-29T06:15:46;20.90;66.10
41756;DHT22;27435;48.480;9.258;2023-05-29T06:18:14;21.30;65.00
41756;DHT22;27435;48.480;9.258;2023-05-29T06:20:47;21.60;64.10
41756;DHT22;27435;48.480;9.258;2023-05-29T06:23:20;21.60;63.80
41756;DHT22;27435;48.480;9.258;2023-05-29T06:25:49;21.60;63.30
41756;DHT22;27435;48.480;9.258;2023-05-29T06:28:15;21.90;62.80
41756;DHT22;27435;48.480;9.258;2023-05-29T06:30:43;22.40;61.60
41756;DHT22;27435;48.480;9.258;2023-05-29T06:33:09;22.60;60.40
41756;DHT22;27435;48.480;9.258;2023-05-29T06:35:35;22.40;60.00
41756;DHT22;27435;48.480;9.258;2023-05-29T06:38:01;21.70;62.50
41756;DHT22;27435;48.480;9.258;2023-05-29T06:40:32;21.50;62.70
41756;DHT22;27435;48.480;9.258;2023-05-29T06:43:04;20.60;65.30
41756;DHT22;27435;48.480;9.258;2023-05-29T06:45:30;20.70;66.20
41756;DHT22;27435;48.480;9.258;2023-05-29T06:48:00;21.20;64.50
41756;DHT22;27435;48.480;9.258;2023-05-29T06:50:29;21.10;64.80
41756;DHT22;27435;48.480;9.258;2023-05-29T06:52:58;21.30;65.20
41756;DHT22;27435;48.480;9.258;2023-05-29T06:55:24;21.50;64.50
41756;DHT22;27435;48.480;9.258;2023-05-29T06:57:50;21.50;64.30
41756;DHT22;27435;48.480;9.258;2023-05-29T07:00:21;21.30;65.30
41756;DHT22;27435;48.480;9.258;2023-05-29T07:02:49;21.50;64.60
41756;DHT22;27435;48.480;9.258;2023-05-29T07:05:19;22.00;64.00
41756;DHT22;27435;48.480;9.258;2023-05-29T07:07:47;21.60;64.60
41756;DHT22;27435;48.480;9.258;2023-05-29T07:10:15;21.50;65.10
41756;DHT22;27435;48.480;9.258;2023-05-29T07:12:41;21.20;65.70
41756;DHT22;27435;48.480;9.258;2023-05-29T07:15:07;20.50;67.60
41756;DHT22;27435;48.480;9.258;2023-05-29T07:17:33;20.00;69.20
41756;DHT22;27435;48.480;9.258;2023-05-29T07:19:58;20.10;69.40
41756;DHT22;27435;48.480;9.258;2023-05-29T07:22:24;19.80;70.60
41756;DHT22;27435;48.480;9.258;2023-05-29T07:24:50;19.50;71.80
41756;DHT22;27435;48.480;9.258;2023-05-29T07:27:15;19.30;72.60
41756;DHT22;27435;48.480;9.258;2023-05-29T07:29:41;19.20;72.70
41756;DHT22;27435;48.480;9.258;2023-05-29T07:32:07;19.20;73.50
41756;DHT22;27435;48.480;9.258;2023-05-29T07:34:32;19.40;73.20
41756;DHT22;27435;48.480;9.258;2023-05-29T07:37:03;19.30;73.60
41756;DHT22;27435;48.480;9.258;2023-05-29T07:39:30;19.10;74.70
41756;DHT22;27435;48.480;9.258;2023-05-29T07:41:56;18.90;75.10
41756;DHT22;27435;48.480;9.258;2023-05-29T07:44:22;19.10;74.00
41756;DHT22;27435;48.480;9.258;2023-05-29T07:46:47;19.10;74.10
41756;DHT22;27435;48.480;9.258;2023-05-29T07:49:13;18.70;74.70
41756;DHT22;27435;48.480;9.258;2023-05-29T07:51:39;18.70;75.40
41756;DHT22;27435;48.480;9.258;2023-05-29T07:54:05;19.00;74.90
41756;DHT22;27435;48.480;9.258;2023-05-29T07:56:31;18.90;73.90
41756;DHT22;27435;48.480;9.258;2023-05-29T07:58:59;18.90;74.20
41756;DHT22;27435;48.480;9.258;2023-05-29T08:01:25;18.80;74.90
41756;DHT22;27435;48.480;9.258;2023-05-29T08:03:51;18.70;75.60
41756;DHT22;27435;48.480;9.258;2023-05-29T08:06:17;18.80;76.10
41756;DHT22;27435;48.480;9.258;2023-05-29T08:08:44;18.80;75.50
41756;DHT22;27435;48.480;9.258;2023-05-29T08:11:10;18.90;75.40
41756;DHT22;27435;48.480;9.258;2023-05-29T08:13:36;18.90;76.00
41756;DHT22;27435;48.480;9.258;2023-05-29T08:16:02;18.80;76.80
41756;DHT22;27435;48.480;9.258;2023-05-29T08:18:31;18.70;76.70
41756;DHT22;27435;48.480;9.258;2023-05-29T08:20:57;18.90;76.80
41756;DHT22;27435;48.480;9.258;2023-05-29T08:23:23;19.00;76.40
41756;DHT22;27435;48.480;9.258;2023-05-29T08:25:48;19.20;76.10
41756;DHT22;27435;48.480;9.258;2023-05-29T08:28:14;19.40;76.00
41756;DHT22;27435;48.480;9.258;2023-05-29T08:30:40;19.30;75.50
41756;DHT22;27435;48.480;9.258;2023-05-29T08:33:06;19.40;76.40
41756;DHT22;27435;48.480;9.258;2023-05-29T08:35:32;19.50;75.90
41756;DHT22;27435;48.480;9.258;2023-05-29T08:37:58;19.60;75.70
41756;DHT22;27435;48.480;9.258;2023-05-29T08:40:24;19.60;76.30
41756;DHT22;27435;48.480;9.258;2023-05-29T08:43:15;19.80;75.70
41756;DHT22;27435;48.480;9.258;2023-05-29T08:45:45;20.00;75.20
41756;DHT22;27435;48.480;9.258;2023-05-29T08:48:11;20.00;74.70
41756;DHT22;27435;48.480;9.258;2023-05-29T08:50:43;20.10;74.00
41756;DHT22;27435;48.480;9.258;2023-05-29T08:53:10;20.30;73.20
41756;DHT22;27435;48.480;9.258;2023-05-29T08:55:36;20.30;74.40
41756;DHT22;27435;48.480;9.258;2023-05-29T08:58:02;20.30;74.30
41756;DHT22;27435;48.480;9.258;2023-05-29T09:00:28;20.60;73.60
41756;DHT22;27435;48.480;9.258;2023-05-29T09:02:54;20.60;73.50
41756;DHT22;27435;48.480;9.258;2023-05-29T09:05:21;20.60;73.70
41756;DHT22;27435;48.480;9.258;2023-05-29T09:07:47;20.40;73.40
41756;DHT22;27435;48.480;9.258;2023-05-29T09:10:15;20.30;74.10
41756;DHT22;27435;48.480;9.258;2023-05-29T09:12:41;20.40;74.40
41756;DHT22;27435;48.480;9.258;2023-05-29T09:15:17;20.60;73.70
41756;DHT22;27435;48.480;9.258;2023-05-29T09:17:44;20.50;72.20
41756;DHT22;27435;48.480;9.258;2023-05-29T09:20:16;20.60;72.40
41756;DHT22;27435;48.480;9.258;2023-05-29T09:23:16;20.80;72.80
41756;DHT22;27435;48.480;9.258;2023-05-29T09:25:43;21.00;72.30
41756;DHT22;27435;48.480;9.258;2023-05-29T09:28:09;21.30;72.30
41756;DHT22;27435;48.480;9.258;2023-05-29T09:33:09;21.20;70.80
41756;DHT22;27435;48.480;9.258;2023-05-29T09:38:01;21.40;68.80
41756;DHT22;27435;48.480;9.258;2023-05-29T09:40:40;21.50;68.60
41756;DHT22;27435;48.480;9.258;2023-05-29T09:43:16;21.70;66.50
41756;DHT22;27435;48.480;9.258;2023-05-29T09:45:46;22.00;65.10
41756;DHT22;27435;48.480;9.258;2023-05-29T09:48:22;22.10;65.50
41756;DHT22;27435;48.480;9.258;2023-05-29T09:50:48;22.00;65.10
41756;DHT22;27435;48.480;9.258;2023-05-29T09:53:22;22.20;63.70
41756;DHT22;27435;48.480;9.258;2023-05-29T09:55:53;22.30;62.60
41756;DHT22;27435;48.480;9.258;2023-05-29T09:58:24;22.30;61.30
41756;DHT22;27435;48.480;9.258;2023-05-29T10:00:52;22.30;61.30
41756;DHT22;27435;48.480;9.258;2023-05-29T10:03:18;22.50;61.30
41756;DHT22;27435;48.480;9.258;2023-05-29T10:05:50;22.70;60.30
41756;DHT22;27435;48.480;9.258;2023-05-29T10:08:18;22.70;59.90
41756;DHT22;27435;48.480;9.258;2023-05-29T10:10:46;22.80;60.50
41756;DHT22;27435;48.480;9.258;2023-05-29T10:13:14;22.90;61.40
41756;DHT22;27435;48.480;9.258;2023-05-29T10:15:46;22.90;61.60
41756;DHT22;27435;48.480;9.258;2023-05-29T10:18:29;23.40;60.80
41756;DHT22;27435;48.480;9.258;2023-05-29T10:20:57;23.60;58.80
41756;DHT22;27435;48.480;9.258;2023-05-29T10:23:25;23.60;58.90
41756;DHT22;27435;48.480;9.258;2023-05-29T10:25:58;23.20;58.90
41756;DHT22;27435;48.480;9.258;2023-05-29T10:28:27;23.10;59.10
41756;DHT22;27435;48.480;9.258;2023-05-29T10:31:05;23.10;57.30
41756;DHT22;27435;48.480;9.258;2023-05-29T10:33:56;23.20;58.70
41756;DHT22;27435;48.480;9.258;2023-05-29T10:36:30;23.00;60.00
41756;DHT22;27435;48.480;9.258;2023-05-29T10:38:59;23.10;60.80
41756;DHT22;27435;48.480;9.258;2023-05-29T10:43:53;23.10;60.60
41756;DHT22;27435;48.480;9.258;2023-05-29T10:46:19;22.80;59.70
41756;DHT22;27435;48.480;9.258;2023-05-29T10:48:45;22.80;60.90
41756;DHT22;27435;48.480;9.258;2023-05-29T10:51:29;22.90;61.40
41756;DHT22;27435;48.480;9.258;2023-05-29T10:53:58;22.90;61.70
41756;DHT22;27435;48.480;9.258;2023-05-29T10:56:28;23.10;61.20
41756;DHT22;27435;48.480;9.258;2023-05-29T10:58:55;23.50;60.00
41756;DHT22;27435;48.480;9.258;2023-05-29T11:01:22;23.50;60.20
41756;DHT22;27435;48.480;9.258;2023-05-29T11:03:49;23.50;58.90
41756;DHT22;27435;48.480;9.258;2023-05-29T11:06:20;23.30;58.70
41756;DHT22;27435;48.480;9.258;2023-05-29T11:08:47;23.30;58.80
41756;DHT22;27435;48.480;9.258;2023-05-29T11:13:54;23.40;57.90
41756;DHT22;27435;48.480;9.258;2023-05-29T11:16:36;23.30;56.80
41756;DHT22;27435;48.480;9.258;2023-05-29T11:19:09;22.90;57.70
41756;DHT22;27435;48.480;9.258;2023-05-29T11:24:22;23.00;58.20
41756;DHT22;27435;48.480;9.258;2023-05-29T11:26:51;23.20;57.40
41756;DHT22;27435;48.480;9.258;2023-05-29T11:29:21;23.60;57.90
41756;DHT22;27435;48.480;9.258;2023-05-29T11:31:49;23.70;56.80
41756;DHT22;27435;48.480;9.258;2023-05-29T11:34:21;23.50;57.10
41756;DHT22;27435;48.480;9.258;2023-05-29T11:36:48;23.70;57.60
41756;DHT22;27435;48.480;9.258;2023-05-29T11:39:14;23.70;56.90
41756;DHT22;27435;48.480;9.258;2023-05-29T11:41:40;23.70;56.50
41756;DHT22;27435;48.480;9.258;2023-05-29T11:44:06;23.80;56.50
41756;DHT22;27435;48.480;9.258;2023-05-29T11:46:32;23.70;55.50
41756;DHT22;27435;48.480;9.258;2023-05-29T11:48:59;23.70;56.00
41756;DHT22;27435;48.480;9.258;2023-05-29T11:51:25;23.80;55.80
41756;DHT22;27435;48.480;9.258;2023-05-29T11:53:51;23.90;55.40
41756;DHT22;27435;48.480;9.258;2023-05-29T11:56:24;23.90;55.40
41756;DHT22;27435;48.480;9.258;2023-05-29T11:58:51;23.90;54.60
41756;DHT22;27435;48.480;9.258;2023-05-29T12:01:21;24.00;54.20
41756;DHT22;27435;48.480;9.258;2023-05-29T12:03:46;24.00;53.40
41756;DHT22;27435;48.480;9.258;2023-05-29T12:06:12;24.20;54.20
41756;DHT22;27435;48.480;9.258;2023-05-29T12:08:38;24.40;53.80
41756;DHT22;27435;48.480;9.258;2023-05-29T12:11:04;24.40;52.90
41756;DHT22;27435;48.480;9.258;2023-05-29T12:13:30;24.20;53.80
41756;DHT22;27435;48.480;9.258;2023-05-29T12:15:57;24.20;53.30
41756;DHT22;27435;48.480;9.258;2023-05-29T12:18:25;24.20;52.30
41756;DHT22;27435;48.480;9.258;2023-05-29T12:21:03;24.20;52.00
41756;DHT22;27435;48.480;9.258;2023-05-29T12:23:29;24.40;52.70
41756;DHT22;27435;48.480;9.258;2023-05-29T12:25:56;24.70;50.10
41756;DHT22;27435;48.480;9.258;2023-05-29T12:28:22;25.00;50.30
41756;DHT22;27435;48.480;9.258;2023-05-29T12:30:48;25.10;48.10
41756;DHT22;27435;48.480;9.258;2023-05-29T12:33:31;24.90;48.80
41756;DHT22;27435;48.480;9.258;2023-05-29T12:36:08;24.60;48.80
41756;DHT22;27435;48.480;9.258;2023-05-29T12:38:48;24.60;48.50
41756;DHT22;27435;48.480;9.258;2023-05-29T12:41:32;24.60;46.60
41756;DHT22;27435;48.480;9.258;2023-05-29T12:44:00;24.60;47.10
41756;DHT22;27435;48.480;9.258;2023-05-29T12:46:27;24.80;47.30
41756;DHT22;27435;48.480;9.258;2023-05-29T12:48:54;25.20;47.50
41756;DHT22;27435;48.480;9.258;2023-05-29T12:51:24;25.20;47.70
41756;DHT22;27435;48.480;9.258;2023-05-29T12:53:50;25.40;47.40
41756;DHT22;27435;48.480;9.258;2023-05-29T12:56:16;25.50;46.30
41756;DHT22;27435;48.480;9.258;2023-05-29T12:58:42;25.20;47.40
41756;DHT22;27435;48.480;9.258;2023-05-29T13:01:12;25.40;46.40
41756;DHT22;27435;48.480;9.258;2023-05-29T13:03:39;25.40;45.30
41756;DHT22;27435;48.480;9.258;2023-05-29T13:06:06;25.10;45.10
41756;DHT22;27435;48.480;9.258;2023-05-29T13:08:32;25.10;45.30
41756;DHT22;27435;48.480;9.258;2023-05-29T13:10:58;25.40;45.10
41756;DHT22;27435;48.480;9.258;2023-05-29T13:13:23;25.40;46.10
41756;DHT22;27435;48.480;9.258;2023-05-29T13:15:49;25.30;46.40
41756;DHT22;27435;48.480;9.258;2023-05-29T13:18:15;25.30;46.20
41756;DHT22;27435;48.480;9.258;2023-05-29T13:20:41;25.30;45.60
41756;DHT22;27435;48.480;9.258;2023-05-29T13:23:06;25.40;46.10
41756;DHT22;27435;48.480;9.258;2023-05-29T13:25:34;25.60;46.20
41756;DHT22;27435;48.480;9.258;2023-05-29T13:28:00;25.90;45.20
41756;DHT22;27435;48.480;9.258;2023-05-29T13:30:26;26.10;44.90
41756;DHT22;27435;48.480;9.258;2023-05-29T13:32:52;25.80;44.70
41756;DHT22;27435;48.480;9.258;2023-05-29T13:35:18;25.40;46.00
41756;DHT22;27435;48.480;9.258;2023-05-29T13:37:44;25.40;46.70
41756;DHT22;27435;48.480;9.258;2023-05-29T13:40:10;25.80;45.30
41756;DHT22;27435;48.480;9.258;2023-05-29T13:42:38;25.90;45.20
41756;DHT22;27435;48.480;9.258;2023-05-29T13:45:05;26.00;45.20
41756;DHT22;27435;48.480;9.258;2023-05-29T13:47:32;26.30;43.90
41756;DHT22;27435;48.480;9.258;2023-05-29T13:49:58;26.00;42.60
41756;DHT22;27435;48.480;9.258;2023-05-29T13:52:25;25.90;44.60
41756;DHT22;27435;48.480;9.258;2023-05-29T13:54:51;26.00;43.30
41756;DHT22;27435;48.480;9.258;2023-05-29T13:57:16;26.20;43.20
41756;DHT22;27435;48.480;9.258;2023-05-29T13:59:42;26.10;43.60
41756;DHT22;27435;48.480;9.258;2023-05-29T14:02:08;25.90;45.00
41756;DHT22;27435;48.480;9.258;2023-05-29T14:04:34;26.30;44.00
41756;DHT22;27435;48.480;9.258;2023-05-29T14:06:59;26.40;43.60
41756;DHT22;27435;48.480;9.258;2023-05-29T14:09:25;26.40;44.60
41756;DHT22;27435;48.480;9.258;2023-05-29T14:11:55;26.60;42.60
41756;DHT22;27435;48.480;9.258;2023-05-29T14:14:21;26.10;43.40
41756;DHT22;27435;48.480;9.258;2023-05-29T14:16:48;26.40;43.90
41756;DHT22;27435;48.480;9.258;2023-05-29T14:19:14;26.60;43.70
41756;DHT22;27435;48.480;9.258;2023-05-29T14:21:40;26.90;43.00
41756;DHT22;27435;48.480;9.258;2023-05-29T14:24:05;26.70;42.90
41756;DHT22;27435;48.480;9.258;2023-05-29T14:26:32;26.70;42.90
41756;DHT22;27435;48.480;9.258;2023-05-29T14:28:58;26.20;44.30
41756;DHT22;27435;48.480;9.258;2023-05-29T14:31:24;26.10;44.30
41756;DHT22;27435;48.480;9.258;2023-05-29T14:33:49;26.60;44.20
41756;DHT22;27435;48.480;9.258;2023-05-29T14:36:15;26.80;43.00
41756;DHT22;27435;48.480;9.258;2023-05-29T14:38:40;26.80;42.90
41756;DHT22;27435;48.480;9.258;2023-05-29T14:41:08;27.90;42.10
41756;DHT22;27435;48.480;9.258;2023-05-29T14:43:34;28.00;41.30
41756;DHT22;27435;48.480;9.258;2023-05-29T14:45:59;27.70;41.60
41756;DHT22;27435;48.480;9.258;2023-05-29T14:48:25;27.90;41.50
41756;DHT22;27435;48.480;9.258;2023-05-29T14:50:50;28.00;41.60
41756;DHT22;27435;48.480;9.258;2023-05-29T14:53:16;28.00;41.10
41756;DHT22;27435;48.480;9.258;2023-05-29T14:55:42;28.10;40.30
41756;DHT22;27435;48.480;9.258;2023-05-29T14:58:07;28.00;40.30
41756;DHT22;27435;48.480;9.258;2023-05-29T15:00:33;27.60;41.50
41756;DHT22;27435;48.480;9.258;2023-05-29T15:02:59;27.50;41.80
41756;DHT22;27435;48.480;9.258;2023-05-29T15:05:27;27.40;42.00
41756;DHT22;27435;48.480;9.258;2023-05-29T15:07:54;26.90;42.10
41756;DHT22;27435;48.480;9.258;2023-05-29T15:10:25;26.80;42.70
41756;DHT22;27435;48.480;9.258;2023-05-29T15:12:54;27.50;42.20
41756;DHT22;27435;48.480;9.258;2023-05-29T15:15:26;27.60;42.30
41756;DHT22;27435;48.480;9.258;2023-05-29T15:17:52;27.40;41.50
41756;DHT22;27435;48.480;9.258;2023-05-29T15:20:22;26.80;42.90
41756;DHT22;27435;48.480;9.258;2023-05-29T15:22:47;27.00;42.10
41756;DHT22;27435;48.480;9.258;2023-05-29T15:25:14;27.40;41.60
41756;DHT22;27435;48.480;9.258;2023-05-29T15:27:40;27.90;41.10
41756;DHT22;27435;48.480;9.258;2023-05-29T15:30:14;28.20;41.10
41756;DHT22;27435;48.480;9.258;2023-05-29T15:32:42;28.00;41.10
41756;DHT22;27435;48.480;9.258;2023-05-29T15:35:12;28.10;41.10
41756;DHT22;27435;48.480;9.258;2023-05-29T15:37:39;28.40;40.30
41756;DHT22;27435;48.480;9.258;2023-05-29T15:40:06;28.60;40.00
41756;DHT22;27435;48.480;9.258;2023-05-29T15:42:32;28.40;38.90
41756;DHT22;27435;48.480;9.258;2023-05-29T15:44:58;28.20;39.80
41756;DHT22;27435;48.480;9.258;2023-05-29T15:47:24;28.20;39.60
41756;DHT22;27435;48.480;9.258;2023-05-29T15:49:50;28.10;39.50
41756;DHT22;27435;48.480;9.258;2023-05-29T15:52:16;28.60;39.90
41756;DHT22;27435;48.480;9.258;2023-05-29T15:54:42;28.70;39.40
41756;DHT22;27435;48.480;9.258;2023-05-29T15:57:07;28.70;39.40
41756;DHT22;27435;48.480;9.258;2023-05-29T15:59:34;28.10;38.80
41756;DHT22;27435;48.480;9.258;2023-05-29T16:02:00;28.30;38.00
41756;DHT22;27435;48.480;9.258;2023-05-29T16:04:26;28.40;38.00
41756;DHT22;27435;48.480;9.258;2023-05-29T16:06:52;27.90;38.50